Time;durP1;ratioP1;P1;durP2;ratioP2;P2;SDS_P1;SDS_P2;PMS_P1;PMS_P2;Temp;Humidity;BMP_temperature;BMP_pressure;BME280_temperature;BME280_humidity;BME280_pressure;Samples;Min_cycle;Max_cycle;Signal;HPM_P1;HPM_P2
2021/12/25 00:02:07;;;;;;;107.30;39.20;;;9.90;88.00;;;;;;4957096;28;20242;-88
2021/12/25 00:04:33;;;;;;;106.00;38.60;;;9.90;87.80;;;;;;4956001;29;20420;-87
2021/12/25 00:06:58;;;;;;;104.63;40.30;;;9.90;87.70;;;;;;4956773;29;20219;-88
2021/12/25 00:09:25;;;;;;;118.43;40.63;;;9.80;87.60;;;;;;4956302;29;20432;-88
2021/12/25 00:11:51;;;;;;;110.28;38.90;;;9.70;87.80;;;;;;4958192;29;20200;-88
2021/12/25 00:14:17;;;;;;;114.00;35.83;;;9.60;87.80;;;;;;4956440;29;20332;-89
2021/12/25 00:16:44;;;;;;;131.10;42.40;;;9.70;88.00;;;;;;4957210;29;20675;-88
2021/12/25 00:19:09;;;;;;;105.47;38.72;;;9.80;88.00;;;;;;4955768;29;20475;-88
2021/12/25 00:21:35;;;;;;;105.53;40.63;;;9.70;88.10;;;;;;4958499;29;20330;-87
2021/12/25 00:24:02;;;;;;;119.00;40.53;;;9.60;88.20;;;;;;4956959;29;20247;-88
2021/12/25 00:34:39;;;;;;;126.18;42.15;;;9.60;88.40;;;;;;4958264;29;20154;-88
2021/12/25 00:37:06;;;;;;;121.38;42.42;;;9.50;88.50;;;;;;4973548;28;20189;-88
2021/12/25 00:39:32;;;;;;;118.03;42.45;;;9.40;88.50;;;;;;4957184;29;20306;-88
2021/12/25 00:42:00;;;;;;;112.27;40.83;;;9.40;88.70;;;;;;4954712;29;20291;-88
2021/12/25 00:44:26;;;;;;;113.30;40.20;;;9.40;88.90;;;;;;4954146;29;20206;-88
2021/12/25 00:46:52;;;;;;;104.78;39.00;;;9.40;89.00;;;;;;4954596;29;20185;-88
2021/12/25 00:49:18;;;;;;;106.82;40.00;;;9.30;89.30;;;;;;4955625;28;20172;-88
2021/12/25 00:51:45;;;;;;;112.47;40.45;;;9.40;89.40;;;;;;4954593;29;20204;-88
2021/12/25 00:54:11;;;;;;;118.97;40.38;;;9.30;89.50;;;;;;4956128;29;20176;-88
2021/12/25 00:56:36;;;;;;;114.57;39.15;;;9.30;89.70;;;;;;4958288;29;20527;-87
2021/12/25 00:59:03;;;;;;;98.77;39.43;;;9.30;89.80;;;;;;4969469;28;20220;-88
2021/12/25 01:01:29;;;;;;;115.07;40.42;;;9.40;89.80;;;;;;4976182;29;20201;-89
2021/12/25 01:03:54;;;;;;;111.35;41.13;;;9.40;89.90;;;;;;4970081;29;20181;-88
2021/12/25 01:06:21;;;;;;;103.43;38.27;;;9.40;89.90;;;;;;4954399;29;20247;-89
2021/12/25 01:08:47;;;;;;;119.82;41.28;;;9.30;90.00;;;;;;4967276;28;20448;-89
2021/12/25 01:11:14;;;;;;;102.20;37.83;;;9.30;90.20;;;;;;4977303;28;20211;-89
2021/12/25 01:13:46;;;;;;;101.22;37.55;;;9.30;90.40;;;;;;4971686;28;20255;-89
2021/12/25 01:31:46;;;;;;;67.32;27.77;;;8.80;91.50;;;;;;4959518;28;20200;-89
2021/12/25 01:42:02;;;;;;;47.17;21.45;;;8.40;92.90;;;;;;4959043;29;20694;-89
2021/12/25 01:49:58;;;;;;;35.30;15.40;;;8.40;93.60;;;;;;4959133;28;20177;-90
2021/12/25 01:52:30;;;;;;;30.70;13.70;;;8.30;93.80;;;;;;4957899;29;20200;-90
2021/12/25 01:55:04;;;;;;;30.98;14.43;;;8.20;93.90;;;;;;4957705;29;20289;-91
2021/12/25 01:57:30;;;;;;;29.80;13.65;;;8.20;94.10;;;;;;4957743;29;20216;-91
2021/12/25 01:59:57;;;;;;;27.88;13.75;;;8.20;94.20;;;;;;4957488;29;20272;-92
2021/12/25 02:02:24;;;;;;;28.83;13.52;;;8.40;94.30;;;;;;4959027;28;20287;-92
2021/12/25 02:04:50;;;;;;;22.73;12.75;;;8.30;94.20;;;;;;4957926;29;20230;-91
2021/12/25 02:07:16;;;;;;;29.95;12.70;;;8.30;94.30;;;;;;4958013;29;20208;-92
2021/12/25 02:09:42;;;;;;;21.35;10.25;;;8.30;94.30;;;;;;4957732;29;20180;-92
2021/12/25 02:12:08;;;;;;;40.13;11.50;;;8.10;94.20;;;;;;4957965;29;20573;-92
2021/12/25 02:14:36;;;;;;;28.65;10.30;;;8.00;94.10;;;;;;4958311;29;20187;-92
2021/12/25 02:17:30;;;;;;;16.55;10.32;;;8.10;94.20;;;;;;4962362;29;20661;-92
2021/12/25 02:20:49;;;;;;;16.55;9.88;;;7.90;94.10;;;;;;4970215;29;20226;-91
2021/12/25 02:23:22;;;;;;;17.55;9.38;;;7.70;94.10;;;;;;4937246;29;20186;-91
2021/12/25 02:25:49;;;;;;;16.05;9.65;;;7.80;94.30;;;;;;4937139;29;20174;-91
2021/12/25 02:28:16;;;;;;;24.02;10.20;;;7.70;94.40;;;;;;4958678;29;20244;-91
2021/12/25 02:30:45;;;;;;;21.77;9.93;;;7.70;94.50;;;;;;4984952;28;20223;-91
2021/12/25 02:33:11;;;;;;;15.95;9.88;;;7.60;94.40;;;;;;4990528;28;20196;-91
2021/12/25 02:35:37;;;;;;;20.38;9.88;;;7.60;94.50;;;;;;4992328;28;20275;-91
2021/12/25 02:38:05;;;;;;;21.63;10.27;;;7.60;94.50;;;;;;4993757;28;20211;-90
2021/12/25 02:40:32;;;;;;;21.73;9.93;;;7.40;94.50;;;;;;4981470;28;20203;-91
2021/12/25 02:42:58;;;;;;;18.00;10.55;;;7.30;94.70;;;;;;4973332;29;20192;-91
2021/12/25 02:45:24;;;;;;;21.67;10.10;;;7.20;94.80;;;;;;4975483;28;20195;-91
2021/12/25 02:47:53;;;;;;;17.15;8.65;;;7.20;94.90;;;;;;4992958;28;20172;-91
2021/12/25 02:50:30;;;;;;;18.92;9.20;;;7.10;95.00;;;;;;4990552;28;20187;-91
2021/12/25 02:52:58;;;;;;;18.63;9.07;;;7.10;95.00;;;;;;4991769;28;20167;-92
2021/12/25 02:55:24;;;;;;;21.65;9.98;;;7.30;95.00;;;;;;4991431;28;20275;-91
2021/12/25 02:57:52;;;;;;;21.17;9.63;;;7.30;94.90;;;;;;4990505;28;20262;-91
2021/12/25 03:00:29;;;;;;;20.05;10.13;;;7.20;94.70;;;;;;4990724;28;20207;-91
2021/12/25 03:02:56;;;;;;;19.20;9.75;;;7.30;94.80;;;;;;4990317;28;20520;-91
2021/12/25 03:05:22;;;;;;;25.00;10.43;;;7.20;94.70;;;;;;4989221;28;20176;-91
2021/12/25 03:07:48;;;;;;;23.48;10.50;;;7.10;94.60;;;;;;4986697;28;20188;-91
2021/12/25 03:10:16;;;;;;;23.67;10.30;;;7.10;94.70;;;;;;4983270;28;20175;-91
2021/12/25 03:13:06;;;;;;;25.23;10.35;;;7.20;94.70;;;;;;4978819;28;20184;-90
2021/12/25 03:15:45;;;;;;;22.52;11.68;;;7.10;94.50;;;;;;4938031;29;20181;-91
2021/12/25 03:18:12;;;;;;;22.25;10.38;;;7.10;94.70;;;;;;4957163;29;20169;-91
2021/12/25 03:20:40;;;;;;;31.80;11.60;;;7.20;94.70;;;;;;4956744;29;20653;-91
2021/12/25 03:23:07;;;;;;;29.42;10.05;;;7.20;94.70;;;;;;4956829;29;20184;-91
2021/12/25 03:25:32;;;;;;;22.20;11.52;;;7.20;94.70;;;;;;4955953;29;20567;-91
2021/12/25 03:27:58;;;;;;;32.67;12.30;;;7.10;94.70;;;;;;4956745;29;20177;-92
2021/12/25 03:30:25;;;;;;;31.23;12.13;;;7.10;94.70;;;;;;4957104;29;20261;-91
2021/12/25 03:32:51;;;;;;;30.25;14.75;;;7.10;94.80;;;;;;4960458;29;20458;-92
2021/12/25 03:35:17;;;;;;;37.03;14.65;;;7.00;94.70;;;;;;4966446;28;20263;-91
2021/12/25 03:37:42;;;;;;;42.30;16.20;;;7.00;94.70;;;;;;4967292;29;20186;-92
2021/12/25 03:40:09;;;;;;;31.63;13.63;;;7.00;94.80;;;;;;4974636;29;20193;-92
2021/12/25 03:42:35;;;;;;;37.13;15.32;;;7.00;94.80;;;;;;4976249;29;20263;-92
2021/12/25 03:45:00;;;;;;;47.13;13.30;;;7.00;94.80;;;;;;4974987;29;20208;-91
2021/12/25 03:47:34;;;;;;;38.20;15.70;;;7.00;94.80;;;;;;4976230;29;20492;-92
2021/12/25 03:58:19;;;;;;;47.28;16.85;;;6.90;94.90;;;;;;4976399;29;20155;-91
2021/12/25 04:00:47;;;;;;;41.10;16.77;;;6.90;95.00;;;;;;4964037;29;20262;-91
2021/12/25 04:03:25;;;;;;;31.08;15.93;;;6.90;95.00;;;;;;4960932;28;20239;-93
2021/12/25 04:05:51;;;;;;;41.30;16.75;;;7.00;95.00;;;;;;4961716;28;20188;-92
2021/12/25 04:08:20;;;;;;;49.43;20.53;;;6.90;94.90;;;;;;4957157;29;20180;-92
2021/12/25 04:10:49;;;;;;;45.72;19.33;;;6.80;94.90;;;;;;4957682;29;20479;-93
2021/12/25 04:13:17;;;;;;;44.63;18.58;;;6.80;94.90;;;;;;4958534;29;20188;-91
2021/12/25 04:15:43;;;;;;;48.60;19.67;;;6.70;95.00;;;;;;4977375;28;20244;-90
2021/12/25 04:18:09;;;;;;;48.45;21.90;;;6.80;95.10;;;;;;4959195;28;20181;-91
2021/12/25 04:20:36;;;;;;;61.47;22.27;;;6.80;95.10;;;;;;4950674;29;20212;-91
2021/12/25 04:23:11;;;;;;;60.70;22.70;;;6.90;95.20;;;;;;4965379;28;20367;-91
2021/12/25 04:25:37;;;;;;;58.05;22.65;;;6.90;95.20;;;;;;4997896;28;20183;-92
2021/12/25 04:28:18;;;;;;;61.28;23.55;;;6.70;95.10;;;;;;4996412;28;20232;-92
2021/12/25 04:31:20;;;;;;;71.47;25.38;;;6.70;95.20;;;;;;4975246;28;20200;-91
2021/12/25 05:01:38;;;;;;;75.57;26.70;;;6.60;95.30;;;;;;4980753;28;20198;-91
2021/12/25 05:04:25;;;;;;;65.97;24.77;;;6.60;95.30;;;;;;4959840;29;20168;-91
2021/12/25 05:06:51;;;;;;;71.85;28.02;;;6.60;95.40;;;;;;4958621;29;20184;-91
2021/12/25 05:09:17;;;;;;;83.40;29.20;;;6.70;95.40;;;;;;4958604;29;20227;-91
2021/12/25 05:11:43;;;;;;;73.93;28.07;;;6.60;95.40;;;;;;4958591;29;20478;-91
2021/12/25 05:14:09;;;;;;;75.10;28.95;;;6.60;95.40;;;;;;4960060;28;20420;-91
2021/12/25 05:16:34;;;;;;;92.47;31.30;;;6.50;95.40;;;;;;4958250;29;20188;-91
2021/12/25 05:19:06;;;;;;;78.57;27.23;;;6.50;95.60;;;;;;4959974;29;20188;-91
2021/12/25 05:21:32;;;;;;;77.40;27.20;;;6.40;95.30;;;;;;4958519;29;20216;-91
2021/12/25 05:23:59;;;;;;;82.13;28.70;;;6.40;95.40;;;;;;4958416;29;20184;-91
2021/12/25 05:26:25;;;;;;;75.60;26.58;;;6.50;95.50;;;;;;4957731;29;20784;-91
2021/12/25 05:28:58;;;;;;;78.93;28.80;;;6.30;95.30;;;;;;4957946;29;20180;-91
2021/12/25 05:31:26;;;;;;;75.07;27.40;;;6.30;95.40;;;;;;4957833;29;20456;-90
2021/12/25 05:33:52;;;;;;;74.85;27.80;;;6.30;95.40;;;;;;4958175;29;20193;-91
2021/12/25 05:36:18;;;;;;;68.95;25.10;;;6.40;95.50;;;;;;4957513;29;20196;-91
2021/12/25 05:38:44;;;;;;;77.93;24.70;;;6.20;95.30;;;;;;4958058;29;20181;-91
2021/12/25 05:41:11;;;;;;;81.88;26.00;;;6.20;95.30;;;;;;4957822;29;20242;-91
2021/12/25 05:43:37;;;;;;;62.70;24.02;;;6.10;95.30;;;;;;4958191;29;20243;-91
2021/12/25 05:46:03;;;;;;;68.13;22.38;;;6.10;95.40;;;;;;4957954;29;20180;-91
2021/12/25 05:48:29;;;;;;;70.07;22.80;;;6.20;95.50;;;;;;4958294;29;20335;-91
2021/12/25 05:50:55;;;;;;;54.67;22.60;;;6.10;95.40;;;;;;4958225;29;20955;-91
2021/12/25 05:53:21;;;;;;;63.93;24.10;;;6.10;95.40;;;;;;4957812;29;20212;-91
2021/12/25 05:55:46;;;;;;;56.60;20.37;;;6.10;95.40;;;;;;4957365;29;20424;-92
2021/12/25 05:58:12;;;;;;;51.97;20.20;;;6.10;95.40;;;;;;4957982;28;20428;-92
2021/12/25 06:00:38;;;;;;;55.93;17.50;;;6.00;95.30;;;;;;4957679;29;20212;-91
2021/12/25 06:03:06;;;;;;;48.45;18.13;;;5.90;95.20;;;;;;4958359;29;20177;-91
2021/12/25 06:05:32;;;;;;;40.47;15.35;;;5.90;95.30;;;;;;4959614;28;20187;-91
2021/12/25 06:07:57;;;;;;;48.17;17.00;;;5.90;95.30;;;;;;4959269;29;20560;-91
2021/12/25 06:10:23;;;;;;;48.60;17.20;;;5.70;95.30;;;;;;4960640;29;20424;-92
2021/12/25 06:12:53;;;;;;;48.60;18.93;;;5.60;95.20;;;;;;4972210;29;20519;-91
2021/12/25 06:15:20;;;;;;;47.85;17.63;;;5.70;95.40;;;;;;4959719;29;20515;-92
2021/12/25 06:17:45;;;;;;;41.92;15.80;;;5.80;95.30;;;;;;4968514;29;20195;-91
2021/12/25 06:20:13;;;;;;;44.37;16.97;;;5.60;95.10;;;;;;4972879;29;20664;-91
2021/12/25 06:22:40;;;;;;;45.53;16.73;;;5.50;95.20;;;;;;4970145;29;20207;-91
2021/12/25 06:25:07;;;;;;;38.85;15.93;;;5.60;95.30;;;;;;4967836;28;20197;-92
2021/12/25 06:27:35;;;;;;;51.58;20.80;;;5.60;95.20;;;;;;4967837;29;20212;-91
2021/12/25 06:30:01;;;;;;;44.97;19.70;;;5.70;95.30;;;;;;4972693;29;20180;-92
2021/12/25 06:32:26;;;;;;;50.53;19.30;;;5.60;95.20;;;;;;4970350;29;20247;-91
2021/12/25 06:34:52;;;;;;;42.13;16.50;;;5.50;95.10;;;;;;4957563;29;20435;-91
2021/12/25 06:37:19;;;;;;;44.37;18.53;;;5.50;95.10;;;;;;4957800;29;20188;-91
2021/12/25 06:39:46;;;;;;;44.30;18.60;;;5.50;95.00;;;;;;4957350;29;20556;-91
2021/12/25 06:42:13;;;;;;;50.60;18.25;;;5.50;95.00;;;;;;4957467;29;20220;-91
2021/12/25 06:44:38;;;;;;;44.33;17.30;;;5.50;95.00;;;;;;4958584;28;20181;-90
2021/12/25 06:47:05;;;;;;;35.40;16.90;;;5.30;94.80;;;;;;4957137;29;20185;-91
2021/12/25 06:49:30;;;;;;;50.63;18.83;;;5.20;94.70;;;;;;4957526;29;20291;-91
2021/12/25 06:51:56;;;;;;;38.57;17.90;;;5.10;94.80;;;;;;4956988;29;20668;-91
2021/12/25 06:54:22;;;;;;;45.97;18.77;;;5.10;94.80;;;;;;4957141;29;20420;-91
2021/12/25 06:56:48;;;;;;;45.73;19.07;;;5.10;94.70;;;;;;4957587;29;20571;-91
2021/12/25 06:59:15;;;;;;;52.22;19.05;;;5.00;94.70;;;;;;4957048;29;20915;-91
2021/12/25 07:01:41;;;;;;;43.00;18.20;;;4.90;94.70;;;;;;4956688;29;20307;-91
2021/12/25 07:04:08;;;;;;;45.40;19.95;;;4.90;94.70;;;;;;4957211;29;20200;-91
2021/12/25 07:06:35;;;;;;;42.72;18.13;;;5.00;94.80;;;;;;4957294;29;20176;-91
2021/12/25 07:09:02;;;;;;;42.42;17.00;;;4.90;94.80;;;;;;4956940;29;20188;-91
2021/12/25 07:11:28;;;;;;;41.95;17.70;;;4.90;94.80;;;;;;4955935;28;20583;-91
2021/12/25 07:13:53;;;;;;;39.20;16.73;;;4.90;94.90;;;;;;4956793;29;20185;-91
2021/12/25 07:16:19;;;;;;;43.73;16.90;;;4.90;94.90;;;;;;4961135;28;20599;-91
2021/12/25 07:18:45;;;;;;;45.83;16.93;;;4.80;94.80;;;;;;4975902;28;20496;-91
2021/12/25 07:21:12;;;;;;;40.05;17.83;;;4.70;94.80;;;;;;4975506;28;20239;-91
2021/12/25 07:23:37;;;;;;;36.63;16.05;;;4.60;94.80;;;;;;4975162;28;20191;-90
2021/12/25 07:26:04;;;;;;;43.30;17.93;;;4.60;94.80;;;;;;4975411;28;20565;-90
2021/12/25 07:28:31;;;;;;;51.30;19.75;;;4.70;95.00;;;;;;4975363;28;20495;-91
2021/12/25 07:31:00;;;;;;;50.08;19.90;;;4.70;95.00;;;;;;4975931;28;20199;-91
2021/12/25 07:33:30;;;;;;;39.33;18.20;;;4.70;95.00;;;;;;4975581;28;20219;-91
2021/12/25 07:35:57;;;;;;;35.22;15.57;;;4.50;94.80;;;;;;4975067;28;20215;-91
2021/12/25 07:38:23;;;;;;;34.97;16.50;;;4.30;94.70;;;;;;4976057;28;20183;-91
2021/12/25 07:40:49;;;;;;;40.92;15.70;;;4.10;94.70;;;;;;4961944;28;20572;-90
2021/12/25 07:43:17;;;;;;;48.22;18.73;;;4.20;94.80;;;;;;4956601;29;20192;-91
2021/12/25 07:45:43;;;;;;;48.28;19.20;;;4.10;94.80;;;;;;4957340;29;20207;-91
2021/12/25 07:48:08;;;;;;;49.53;19.27;;;4.30;95.00;;;;;;4979308;28;20177;-91
2021/12/25 07:50:36;;;;;;;38.90;19.17;;;4.20;95.50;;;;;;4978125;28;20228;-90
2021/12/25 07:53:02;;;;;;;43.33;19.67;;;4.20;94.80;;;;;;4957483;29;20184;-91
2021/12/25 07:55:30;;;;;;;46.03;19.20;;;4.20;94.90;;;;;;4958144;28;20212;-90
2021/12/25 07:57:56;;;;;;;54.97;21.15;;;4.10;94.90;;;;;;4957268;29;20176;-91
2021/12/25 08:00:23;;;;;;;42.65;19.67;;;3.90;94.70;;;;;;4956780;29;20212;-91
2021/12/25 08:02:48;;;;;;;52.05;19.15;;;4.00;94.80;;;;;;4956450;29;20188;-90
2021/12/25 08:05:14;;;;;;;49.10;20.77;;;3.80;94.70;;;;;;4956318;29;20184;-90
2021/12/25 08:07:40;;;;;;;42.97;20.70;;;3.90;94.80;;;;;;4957191;29;20185;-91
2021/12/25 08:10:14;;;;;;;54.30;19.10;;;3.90;94.80;;;;;;4957371;29;20279;-90
2021/12/25 08:12:52;;;;;;;54.22;20.88;;;3.70;94.60;;;;;;4969040;28;20419;-91
2021/12/25 08:15:20;;;;;;;49.35;21.17;;;3.70;94.80;;;;;;4954977;29;20213;-89
2021/12/25 08:17:47;;;;;;;57.75;23.00;;;3.70;94.70;;;;;;4975519;28;20183;-84
2021/12/25 08:20:14;;;;;;;62.25;23.45;;;3.70;94.80;;;;;;4975582;28;20671;-85
2021/12/25 08:22:41;;;;;;;67.78;23.20;;;3.70;95.00;;;;;;4979206;28;20176;-85
2021/12/25 08:25:09;;;;;;;61.88;24.33;;;3.50;95.00;;;;;;4979853;28;20211;-85
2021/12/25 08:27:36;;;;;;;58.80;22.30;;;3.50;95.10;;;;;;4995837;28;20259;-85
2021/12/25 08:30:05;;;;;;;59.92;23.65;;;3.50;95.10;;;;;;4994020;28;20200;-85
2021/12/25 08:32:31;;;;;;;56.28;22.08;;;3.60;95.30;;;;;;4978399;28;20223;-85
2021/12/25 08:34:56;;;;;;;53.47;23.90;;;3.60;95.30;;;;;;4976781;28;20180;-85
2021/12/25 08:37:24;;;;;;;58.93;25.63;;;3.50;95.30;;;;;;4976132;28;20421;-85
2021/12/25 08:39:51;;;;;;;58.80;21.92;;;3.50;95.30;;;;;;4968567;28;20456;-85
2021/12/25 08:42:17;;;;;;;71.30;25.88;;;3.60;95.20;;;;;;4956745;29;20271;-85
2021/12/25 08:47:38;;;;;;;67.75;23.45;;;3.60;95.20;;;;;;4955127;29;20212;-85
2021/12/25 08:50:08;;;;;;;54.53;23.77;;;3.50;95.20;;;;;;4964487;29;20189;-85
2021/12/25 08:52:35;;;;;;;77.72;26.15;;;3.60;95.10;;;;;;4970138;29;20421;-85
2021/12/25 08:55:03;;;;;;;61.58;24.02;;;3.60;95.10;;;;;;4974693;29;20189;-86
2021/12/25 08:57:28;;;;;;;60.45;23.92;;;3.60;95.20;;;;;;4970824;28;20245;-85
2021/12/25 08:59:56;;;;;;;56.17;23.93;;;3.50;95.10;;;;;;4963259;29;20204;-85
2021/12/25 09:02:24;;;;;;;61.88;24.00;;;3.40;95.00;;;;;;4956371;29;20246;-85
2021/12/25 09:04:51;;;;;;;64.32;25.83;;;3.20;95.00;;;;;;4954948;29;20208;-85
2021/12/25 09:07:17;;;;;;;63.17;24.73;;;3.20;95.10;;;;;;4955141;29;20644;-85
2021/12/25 09:09:43;;;;;;;58.08;21.83;;;3.30;95.20;;;;;;4955329;29;20193;-84
2021/12/25 09:12:13;;;;;;;58.53;23.20;;;3.40;95.40;;;;;;4956088;29;20204;-85
2021/12/25 09:14:39;;;;;;;70.55;22.40;;;3.30;95.40;;;;;;4954785;29;20187;-86
2021/12/25 09:17:05;;;;;;;58.13;23.70;;;3.20;95.30;;;;;;4955503;29;20610;-86
2021/12/25 09:19:31;;;;;;;59.58;20.30;;;3.10;95.40;;;;;;4956929;28;20215;-85
2021/12/25 09:21:57;;;;;;;54.20;20.70;;;3.10;95.50;;;;;;4955294;29;20629;-86
2021/12/25 09:24:24;;;;;;;57.60;21.88;;;3.40;95.50;;;;;;4956651;28;20499;-86
2021/12/25 09:26:50;;;;;;;57.05;21.13;;;3.40;95.50;;;;;;4955439;29;20211;-85
2021/12/25 09:29:15;;;;;;;51.83;23.02;;;3.40;95.40;;;;;;4955933;29;20181;-84
2021/12/25 09:31:41;;;;;;;57.25;20.60;;;3.50;95.40;;;;;;4955897;29;20589;-85
2021/12/25 09:34:07;;;;;;;56.67;22.00;;;3.50;95.30;;;;;;4956725;28;20200;-85
2021/12/25 09:36:34;;;;;;;68.43;23.47;;;3.40;95.10;;;;;;4959730;29;20184;-85
2021/12/25 09:39:02;;;;;;;57.30;19.95;;;3.60;95.10;;;;;;4959123;29;20552;-85
2021/12/25 09:41:29;;;;;;;47.70;19.55;;;3.60;94.90;;;;;;4958763;29;20204;-85
2021/12/25 09:43:55;;;;;;;53.65;21.45;;;3.60;94.80;;;;;;4958508;29;20578;-85
2021/12/25 09:46:21;;;;;;;54.22;21.73;;;3.70;94.70;;;;;;4958349;29;20192;-85
2021/12/25 09:48:50;;;;;;;56.80;20.23;;;3.70;94.60;;;;;;4958733;29;20176;-85
2021/12/25 09:51:16;;;;;;;50.17;20.90;;;3.70;94.50;;;;;;4958047;29;20815;-85
2021/12/25 09:53:42;;;;;;;49.00;22.35;;;3.50;94.10;;;;;;4946193;28;20244;-86
2021/12/25 09:56:08;;;;;;;47.67;20.27;;;3.40;93.90;;;;;;4938923;29;20185;-85
2021/12/25 09:58:34;;;;;;;44.23;17.73;;;3.30;93.70;;;;;;4939311;29;20939;-85
2021/12/25 10:01:00;;;;;;;50.40;20.70;;;3.30;93.80;;;;;;4939319;29;20473;-85
2021/12/25 10:03:42;;;;;;;58.17;22.73;;;3.30;93.80;;;;;;4939860;29;20192;-85
2021/12/25 10:06:08;;;;;;;43.88;19.92;;;3.30;93.90;;;;;;4939440;29;20208;-86
2021/12/25 10:08:38;;;;;;;43.13;18.63;;;3.40;93.80;;;;;;4940166;29;20178;-86
2021/12/25 10:11:04;;;;;;;43.05;20.90;;;3.50;93.90;;;;;;4939356;29;20244;-85
2021/12/25 10:13:39;;;;;;;47.50;20.52;;;3.50;93.80;;;;;;4939154;29;20514;-85
2021/12/25 10:16:37;;;;;;;52.17;21.83;;;3.50;93.70;;;;;;4944444;28;20183;-85
2021/12/25 10:19:14;;;;;;;54.78;20.80;;;3.30;93.50;;;;;;4945596;28;20195;-85
2021/12/25 10:21:40;;;;;;;48.83;19.75;;;3.40;93.50;;;;;;4978201;28;20219;-84
2021/12/25 10:24:28;;;;;;;48.47;21.53;;;3.40;93.50;;;;;;4978373;28;20188;-84
2021/12/25 10:27:13;;;;;;;45.78;18.60;;;3.40;93.50;;;;;;4977914;28;20443;-86
2021/12/25 10:29:39;;;;;;;50.85;19.88;;;3.40;93.40;;;;;;4978732;28;20227;-83
2021/12/25 10:32:25;;;;;;;51.83;19.47;;;3.30;93.50;;;;;;4975512;28;20576;-84
2021/12/25 10:34:53;;;;;;;51.90;19.60;;;3.30;93.40;;;;;;4977536;28;20431;-86
2021/12/25 10:37:21;;;;;;;51.17;19.13;;;3.30;93.40;;;;;;4976739;28;20176;-85
2021/12/25 10:39:47;;;;;;;51.30;20.42;;;3.30;93.20;;;;;;4971338;28;20220;-84
2021/12/25 10:42:20;;;;;;;49.97;21.58;;;3.40;93.20;;;;;;4965699;28;20212;-84
2021/12/25 10:44:52;;;;;;;51.65;21.75;;;3.30;93.00;;;;;;4969252;28;20181;-84
2021/12/25 10:47:20;;;;;;;49.60;21.45;;;3.30;92.90;;;;;;4970946;29;20188;-84
2021/12/25 10:49:57;;;;;;;43.67;20.77;;;3.30;92.90;;;;;;4969826;29;20189;-84
2021/12/25 10:52:27;;;;;;;49.28;19.88;;;3.40;92.80;;;;;;4966899;28;20211;-84
2021/12/25 10:54:52;;;;;;;45.22;20.00;;;3.30;92.80;;;;;;4966333;28;20195;-84
2021/12/25 10:57:34;;;;;;;46.07;20.90;;;3.30;92.60;;;;;;4961228;28;20180;-84
2021/12/25 11:00:03;;;;;;;46.50;21.17;;;3.30;92.30;;;;;;4960815;29;20204;-85
2021/12/25 11:02:35;;;;;;;47.75;21.25;;;3.30;92.20;;;;;;4961366;29;20200;-85
2021/12/25 11:05:33;;;;;;;43.83;21.25;;;3.50;92.20;;;;;;4961429;29;20173;-85
2021/12/25 11:08:19;;;;;;;39.08;20.13;;;3.40;91.70;;;;;;4973662;29;20184;-85
2021/12/25 11:11:08;;;;;;;50.63;21.33;;;3.40;91.60;;;;;;4972314;29;20575;-85
2021/12/25 11:13:47;;;;;;;54.28;20.05;;;3.20;91.30;;;;;;4970946;29;20181;-85
2021/12/25 11:16:20;;;;;;;41.70;18.65;;;3.30;91.40;;;;;;4961967;29;20240;-85
2021/12/25 11:19:27;;;;;;;51.20;21.20;;;3.10;91.20;;;;;;4959726;29;20191;-84
2021/12/25 11:21:59;;;;;;;43.67;19.13;;;3.10;91.30;;;;;;4957275;28;20223;-85
2021/12/25 11:24:38;;;;;;;37.30;19.38;;;3.10;91.40;;;;;;4956895;29;20682;-85
2021/12/25 13:08:36;;;;;;;35.03;16.48;;;2.90;85.90;;;;;;5492386;23;20243;-79
2021/12/25 13:11:20;;;;;;;33.88;15.27;;;3.10;85.90;;;;;;4960450;28;20207;-78
2021/12/25 13:13:53;;;;;;;34.50;16.80;;;2.90;86.00;;;;;;4960837;29;20185;-80
2021/12/25 13:16:20;;;;;;;41.80;20.00;;;2.90;85.40;;;;;;4972619;29;20559;-82
2021/12/25 13:18:48;;;;;;;36.42;16.60;;;3.00;85.50;;;;;;4972510;29;20207;-80
2021/12/25 13:21:23;;;;;;;33.75;17.05;;;3.10;85.30;;;;;;4976612;29;20268;-81
2021/12/25 13:23:54;;;;;;;37.15;18.27;;;3.10;85.10;;;;;;4976597;28;20191;-81
2021/12/25 13:26:22;;;;;;;38.92;18.90;;;3.20;84.90;;;;;;4973875;29;20223;-83
2021/12/25 13:28:51;;;;;;;34.38;17.13;;;3.30;84.70;;;;;;4965898;28;20679;-82
2021/12/25 13:31:22;;;;;;;36.67;17.95;;;3.20;84.30;;;;;;4964387;28;20176;-81
2021/12/25 13:34:03;;;;;;;36.83;17.35;;;3.20;84.30;;;;;;4961775;28;20176;-80
2021/12/25 13:36:34;;;;;;;32.28;16.15;;;3.10;84.40;;;;;;4961879;28;20276;-80
2021/12/25 13:39:12;;;;;;;35.00;16.73;;;3.20;84.30;;;;;;4959413;28;20561;-80
2021/12/25 13:41:43;;;;;;;32.22;15.63;;;3.10;84.10;;;;;;4957035;28;20235;-77
2021/12/25 13:53:29;;;;;;;30.35;15.35;;;3.00;84.00;;;;;;5541792;23;20234;-86
2021/12/25 13:55:55;;;;;;;24.95;13.75;;;3.10;83.90;;;;;;4997179;28;20215;-86
2021/12/25 13:58:26;;;;;;;27.70;13.30;;;3.00;83.50;;;;;;4996993;28;20640;-88
2021/12/25 14:00:52;;;;;;;27.52;13.15;;;3.00;83.50;;;;;;4987669;28;20298;-85
2021/12/25 14:03:21;;;;;;;23.88;13.00;;;2.90;83.50;;;;;;4988083;28;20249;-87
2021/12/25 14:05:49;;;;;;;27.52;14.07;;;2.90;83.60;;;;;;4997749;28;20294;-86
2021/12/25 14:08:23;;;;;;;23.48;13.63;;;2.90;83.70;;;;;;5003086;28;20234;-85
2021/12/25 14:10:51;;;;;;;23.08;11.25;;;2.90;83.80;;;;;;4982705;28;20183;-84
2021/12/25 14:13:21;;;;;;;25.27;14.07;;;2.80;83.50;;;;;;4997027;28;20286;-87
2021/12/25 14:15:51;;;;;;;20.27;10.25;;;2.70;83.90;;;;;;4996284;28;20262;-87
2021/12/25 14:18:17;;;;;;;25.77;12.55;;;2.70;84.20;;;;;;4997051;28;20211;-87
2021/12/25 14:20:43;;;;;;;24.17;14.05;;;2.70;84.20;;;;;;4986050;28;20630;-86
2021/12/25 14:23:16;;;;;;;25.30;14.97;;;2.70;83.90;;;;;;4991711;28;20212;-86
2021/12/25 14:25:59;;;;;;;23.15;12.43;;;2.80;83.50;;;;;;4977527;28;20455;-86
2021/12/25 14:28:30;;;;;;;22.35;12.02;;;2.70;83.40;;;;;;4988280;28;20864;-86
2021/12/25 14:31:01;;;;;;;20.50;13.82;;;2.60;83.10;;;;;;4995118;28;20199;-85
2021/12/25 14:33:28;;;;;;;24.85;12.82;;;2.60;83.40;;;;;;4996196;28;20621;-86
2021/12/25 14:35:54;;;;;;;19.25;11.60;;;2.50;83.30;;;;;;4998577;28;20195;-86
2021/12/25 14:38:21;;;;;;;21.10;13.43;;;2.60;83.40;;;;;;4998073;28;20277;-86
2021/12/25 14:40:49;;;;;;;20.15;13.55;;;2.60;83.40;;;;;;4995510;28;20480;-86
2021/12/25 14:45:52;;;;;;;23.45;14.43;;;2.60;83.10;;;;;;4962132;23;20291;-79
2021/12/25 14:48:37;;;;;;;16.55;11.25;;;2.50;83.00;;;;;;4957726;29;20208;-79
2021/12/25 14:51:06;;;;;;;23.15;13.95;;;2.60;83.00;;;;;;4958785;29;20215;-79
2021/12/25 14:53:32;;;;;;;16.50;11.23;;;2.70;83.20;;;;;;4959005;28;20728;-78
2021/12/25 14:56:04;;;;;;;21.90;12.52;;;2.80;83.20;;;;;;4962815;29;20204;-79
2021/12/25 14:58:35;;;;;;;20.45;12.10;;;2.90;82.90;;;;;;4958179;28;20638;-79
2021/12/25 15:01:07;;;;;;;21.42;13.07;;;2.90;82.90;;;;;;4958575;28;20224;-79
2021/12/25 15:03:34;;;;;;;24.27;12.32;;;2.80;82.30;;;;;;4957666;29;20669;-79
2021/12/25 15:06:00;;;;;;;20.92;11.30;;;2.80;82.40;;;;;;4959494;28;20215;-78
2021/12/25 15:08:33;;;;;;;18.25;11.35;;;2.60;82.50;;;;;;4958048;29;20305;-79
2021/12/25 15:11:17;;;;;;;15.65;11.20;;;2.80;82.90;;;;;;4959778;29;20183;-79
2021/12/25 15:13:56;;;;;;;17.88;10.63;;;3.00;82.90;;;;;;4967110;29;20575;-79
2021/12/25 15:16:41;;;;;;;25.85;15.27;;;3.00;82.50;;;;;;4964892;28;20269;-83
2021/12/25 15:19:08;;;;;;;24.48;13.70;;;2.90;82.10;;;;;;4964310;29;20212;-84
2021/12/25 15:21:47;;;;;;;21.80;11.68;;;2.70;82.40;;;;;;4966851;29;20230;-84
2021/12/25 15:24:17;;;;;;;17.95;10.30;;;2.60;82.50;;;;;;4968090;28;20211;-83
2021/12/25 15:26:47;;;;;;;24.45;11.45;;;2.60;82.70;;;;;;4970371;29;20177;-83
2021/12/25 15:29:13;;;;;;;19.23;11.80;;;2.70;82.90;;;;;;4971076;29;20273;-84
2021/12/25 15:31:39;;;;;;;17.52;9.75;;;2.70;83.10;;;;;;4964612;28;20227;-85
2021/12/25 15:34:17;;;;;;;16.55;10.05;;;2.80;82.80;;;;;;4963248;29;20211;-84
2021/12/25 15:36:45;;;;;;;19.05;10.98;;;3.00;82.80;;;;;;4963062;28;20215;-85
2021/12/25 15:39:19;;;;;;;17.35;10.70;;;2.80;82.10;;;;;;4961848;29;20197;-84
2021/12/25 15:41:46;;;;;;;16.15;10.60;;;2.70;82.10;;;;;;4961742;29;20256;-85
2021/12/25 15:44:14;;;;;;;16.10;9.75;;;2.60;82.00;;;;;;4961333;29;20236;-84
2021/12/25 15:46:39;;;;;;;18.42;11.15;;;2.60;82.10;;;;;;4962190;28;20201;-85
2021/12/25 15:49:06;;;;;;;16.53;10.77;;;2.60;82.00;;;;;;4961432;28;20268;-84
2021/12/25 15:51:33;;;;;;;17.23;11.35;;;2.70;82.10;;;;;;4961343;29;20412;-84
2021/12/25 15:53:59;;;;;;;15.55;9.25;;;2.60;81.90;;;;;;4961148;28;20287;-85
2021/12/25 15:56:26;;;;;;;19.90;9.98;;;2.50;81.70;;;;;;4961171;29;20212;-85